sensor_id;sensor_type;location;lat;lon;timestamp;P1;durP1;ratioP1;P2;durP2;ratioP2
19436;SDS011;9854;50.968;4.168;2022-11-15T00:01:35;29.38;;;23.63;;
19436;SDS011;9854;50.968;4.168;2022-11-15T00:04:02;29.02;;;23.88;;
19436;SDS011;9854;50.968;4.168;2022-11-15T00:06:29;36.80;;;24.80;;
19436;SDS011;9854;50.968;4.168;2022-11-15T00:08:54;34.15;;;23.98;;
19436;SDS011;9854;50.968;4.168;2022-11-15T00:11:23;41.15;;;23.75;;
19436;SDS011;9854;50.968;4.168;2022-11-15T00:13:48;29.98;;;22.83;;
19436;SDS011;9854;50.968;4.168;2022-11-15T00:16:14;32.40;;;23.30;;
19436;SDS011;9854;50.968;4.168;2022-11-15T00:18:39;33.67;;;23.30;;
19436;SDS011;9854;50.968;4.168;2022-11-15T00:21:06;36.35;;;23.50;;
19436;SDS011;9854;50.968;4.168;2022-11-15T00:23:34;32.10;;;22.20;;
19436;SDS011;9854;50.968;4.168;2022-11-15T00:26:00;30.92;;;21.70;;
19436;SDS011;9854;50.968;4.168;2022-11-15T00:28:25;31.67;;;21.30;;
19436;SDS011;9854;50.968;4.168;2022-11-15T00:30:51;27.85;;;21.02;;
19436;SDS011;9854;50.968;4.168;2022-11-15T00:33:17;29.10;;;20.80;;
19436;SDS011;9854;50.968;4.168;2022-11-15T00:35:42;31.75;;;21.00;;
19436;SDS011;9854;50.968;4.168;2022-11-15T00:38:08;25.05;;;19.95;;
19436;SDS011;9854;50.968;4.168;2022-11-15T00:40:34;25.35;;;20.45;;
19436;SDS011;9854;50.968;4.168;2022-11-15T00:42:59;23.05;;;19.55;;
19436;SDS011;9854;50.968;4.168;2022-11-15T00:45:25;28.15;;;19.83;;
19436;SDS011;9854;50.968;4.168;2022-11-15T00:47:51;23.08;;;19.35;;
19436;SDS011;9854;50.968;4.168;2022-11-15T00:50:17;25.20;;;19.48;;
19436;SDS011;9854;50.968;4.168;2022-11-15T00:52:43;28.30;;;19.35;;
19436;SDS011;9854;50.968;4.168;2022-11-15T00:55:13;27.70;;;18.98;;
19436;SDS011;9854;50.968;4.168;2022-11-15T00:57:40;23.45;;;18.58;;
19436;SDS011;9854;50.968;4.168;2022-11-15T01:00:06;23.73;;;17.98;;
19436;SDS011;9854;50.968;4.168;2022-11-15T01:02:32;28.13;;;18.83;;
19436;SDS011;9854;50.968;4.168;2022-11-15T01:04:58;25.40;;;18.52;;
19436;SDS011;9854;50.968;4.168;2022-11-15T01:07:23;23.70;;;18.00;;
19436;SDS011;9854;50.968;4.168;2022-11-15T01:09:49;23.52;;;18.88;;
19436;SDS011;9854;50.968;4.168;2022-11-15T01:12:14;19.30;;;17.20;;
19436;SDS011;9854;50.968;4.168;2022-11-15T01:14:40;24.08;;;18.05;;
19436;SDS011;9854;50.968;4.168;2022-11-15T01:17:06;26.02;;;18.27;;
19436;SDS011;9854;50.968;4.168;2022-11-15T01:19:31;28.02;;;18.30;;
19436;SDS011;9854;50.968;4.168;2022-11-15T01:21:57;26.08;;;18.88;;
19436;SDS011;9854;50.968;4.168;2022-11-15T01:24:22;25.20;;;18.52;;
19436;SDS011;9854;50.968;4.168;2022-11-15T01:26:48;23.98;;;19.30;;
19436;SDS011;9854;50.968;4.168;2022-11-15T01:29:14;27.02;;;19.75;;
19436;SDS011;9854;50.968;4.168;2022-11-15T01:31:39;27.77;;;20.55;;
19436;SDS011;9854;50.968;4.168;2022-11-15T01:34:05;22.95;;;18.67;;
19436;SDS011;9854;50.968;4.168;2022-11-15T01:36:30;25.35;;;19.83;;
19436;SDS011;9854;50.968;4.168;2022-11-15T01:38:56;29.48;;;19.08;;
19436;SDS011;9854;50.968;4.168;2022-11-15T01:41:24;26.83;;;19.10;;
19436;SDS011;9854;50.968;4.168;2022-11-15T01:43:52;34.42;;;19.13;;
19436;SDS011;9854;50.968;4.168;2022-11-15T01:46:34;23.50;;;17.42;;
19436;SDS011;9854;50.968;4.168;2022-11-15T01:49:04;22.65;;;18.00;;
19436;SDS011;9854;50.968;4.168;2022-11-15T01:51:36;21.38;;;17.67;;
19436;SDS011;9854;50.968;4.168;2022-11-15T01:54:07;23.65;;;18.00;;
19436;SDS011;9854;50.968;4.168;2022-11-15T01:56:38;26.10;;;18.05;;
19436;SDS011;9854;50.968;4.168;2022-11-15T01:59:10;25.63;;;16.55;;
19436;SDS011;9854;50.968;4.168;2022-11-15T02:01:36;23.60;;;16.98;;
19436;SDS011;9854;50.968;4.168;2022-11-15T02:04:10;26.50;;;17.42;;
19436;SDS011;9854;50.968;4.168;2022-11-15T02:06:39;24.77;;;16.92;;
19436;SDS011;9854;50.968;4.168;2022-11-15T02:09:07;22.67;;;16.55;;
19436;SDS011;9854;50.968;4.168;2022-11-15T02:11:33;25.40;;;15.77;;
19436;SDS011;9854;50.968;4.168;2022-11-15T02:13:59;24.00;;;16.20;;
19436;SDS011;9854;50.968;4.168;2022-11-15T02:22:46;22.77;;;17.55;;
19436;SDS011;9854;50.968;4.168;2022-11-15T02:33:11;25.00;;;17.73;;
19436;SDS011;9854;50.968;4.168;2022-11-15T02:36:05;25.20;;;17.90;;
19436;SDS011;9854;50.968;4.168;2022-11-15T02:41:15;24.50;;;17.52;;
19436;SDS011;9854;50.968;4.168;2022-11-15T02:43:51;19.42;;;15.23;;
19436;SDS011;9854;50.968;4.168;2022-11-15T02:46:36;22.00;;;14.95;;
19436;SDS011;9854;50.968;4.168;2022-11-15T02:49:24;20.52;;;14.73;;
19436;SDS011;9854;50.968;4.168;2022-11-15T02:51:54;18.48;;;15.38;;
19436;SDS011;9854;50.968;4.168;2022-11-15T02:54:28;23.67;;;15.68;;
19436;SDS011;9854;50.968;4.168;2022-11-15T02:56:58;18.50;;;15.75;;
19436;SDS011;9854;50.968;4.168;2022-11-15T03:02:24;17.70;;;14.73;;
19436;SDS011;9854;50.968;4.168;2022-11-15T03:10:18;26.08;;;14.85;;
19436;SDS011;9854;50.968;4.168;2022-11-15T03:12:56;21.80;;;14.48;;
19436;SDS011;9854;50.968;4.168;2022-11-15T03:15:31;21.75;;;15.07;;
19436;SDS011;9854;50.968;4.168;2022-11-15T03:18:07;18.98;;;14.00;;
19436;SDS011;9854;50.968;4.168;2022-11-15T03:20:46;19.90;;;13.98;;
19436;SDS011;9854;50.968;4.168;2022-11-15T03:23:13;17.17;;;12.48;;
19436;SDS011;9854;50.968;4.168;2022-11-15T03:25:43;19.15;;;12.75;;
19436;SDS011;9854;50.968;4.168;2022-11-15T03:28:14;21.42;;;13.25;;
19436;SDS011;9854;50.968;4.168;2022-11-15T03:30:47;17.60;;;12.15;;
19436;SDS011;9854;50.968;4.168;2022-11-15T03:33:15;18.83;;;11.90;;
19436;SDS011;9854;50.968;4.168;2022-11-15T03:35:43;14.88;;;11.98;;
19436;SDS011;9854;50.968;4.168;2022-11-15T03:40:41;15.35;;;11.55;;
19436;SDS011;9854;50.968;4.168;2022-11-15T03:46:38;16.42;;;10.75;;
19436;SDS011;9854;50.968;4.168;2022-11-15T03:49:09;17.70;;;11.00;;
19436;SDS011;9854;50.968;4.168;2022-11-15T03:51:46;16.73;;;10.40;;
19436;SDS011;9854;50.968;4.168;2022-11-15T03:54:12;13.40;;;9.85;;
19436;SDS011;9854;50.968;4.168;2022-11-15T03:56:39;16.33;;;10.35;;
19436;SDS011;9854;50.968;4.168;2022-11-15T03:59:04;13.20;;;10.18;;
19436;SDS011;9854;50.968;4.168;2022-11-15T04:01:30;13.90;;;9.23;;
19436;SDS011;9854;50.968;4.168;2022-11-15T04:03:55;15.63;;;9.95;;
19436;SDS011;9854;50.968;4.168;2022-11-15T04:06:21;19.17;;;9.60;;
19436;SDS011;9854;50.968;4.168;2022-11-15T04:08:46;12.68;;;9.35;;
19436;SDS011;9854;50.968;4.168;2022-11-15T04:11:12;12.38;;;9.60;;
19436;SDS011;9854;50.968;4.168;2022-11-15T04:13:37;21.48;;;8.82;;
19436;SDS011;9854;50.968;4.168;2022-11-15T04:16:03;16.27;;;9.27;;
19436;SDS011;9854;50.968;4.168;2022-11-15T04:18:29;14.63;;;9.52;;
19436;SDS011;9854;50.968;4.168;2022-11-15T04:20:54;11.90;;;9.18;;
19436;SDS011;9854;50.968;4.168;2022-11-15T04:23:38;13.77;;;9.10;;
19436;SDS011;9854;50.968;4.168;2022-11-15T04:26:22;13.93;;;9.50;;
19436;SDS011;9854;50.968;4.168;2022-11-15T04:28:48;16.58;;;9.10;;
19436;SDS011;9854;50.968;4.168;2022-11-15T04:31:33;11.85;;;8.68;;
19436;SDS011;9854;50.968;4.168;2022-11-15T04:33:58;12.13;;;9.65;;
19436;SDS011;9854;50.968;4.168;2022-11-15T04:36:24;19.58;;;9.25;;
19436;SDS011;9854;50.968;4.168;2022-11-15T04:39:08;12.90;;;8.52;;
19436;SDS011;9854;50.968;4.168;2022-11-15T04:41:34;11.68;;;8.30;;
19436;SDS011;9854;50.968;4.168;2022-11-15T04:44:00;12.95;;;8.13;;
19436;SDS011;9854;50.968;4.168;2022-11-15T04:46:25;10.70;;;8.20;;
19436;SDS011;9854;50.968;4.168;2022-11-15T04:48:51;12.60;;;8.75;;
19436;SDS011;9854;50.968;4.168;2022-11-15T04:51:18;13.80;;;8.25;;
19436;SDS011;9854;50.968;4.168;2022-11-15T04:53:44;10.85;;;8.02;;
19436;SDS011;9854;50.968;4.168;2022-11-15T04:56:09;11.87;;;8.43;;
19436;SDS011;9854;50.968;4.168;2022-11-15T04:58:35;12.75;;;7.70;;
19436;SDS011;9854;50.968;4.168;2022-11-15T05:01:08;14.10;;;8.13;;
19436;SDS011;9854;50.968;4.168;2022-11-15T05:03:34;12.23;;;7.38;;
19436;SDS011;9854;50.968;4.168;2022-11-15T05:06:18;14.75;;;7.85;;
19436;SDS011;9854;50.968;4.168;2022-11-15T05:08:44;12.90;;;7.90;;
19436;SDS011;9854;50.968;4.168;2022-11-15T05:11:10;9.93;;;7.07;;
19436;SDS011;9854;50.968;4.168;2022-11-15T05:13:35;11.70;;;6.80;;
19436;SDS011;9854;50.968;4.168;2022-11-15T05:16:01;12.95;;;6.70;;
19436;SDS011;9854;50.968;4.168;2022-11-15T05:18:26;13.70;;;6.20;;
19436;SDS011;9854;50.968;4.168;2022-11-15T05:20:52;10.85;;;6.15;;
19436;SDS011;9854;50.968;4.168;2022-11-15T05:23:18;12.02;;;6.03;;
19436;SDS011;9854;50.968;4.168;2022-11-15T05:25:43;7.25;;;6.00;;
19436;SDS011;9854;50.968;4.168;2022-11-15T05:28:09;11.95;;;6.03;;
19436;SDS011;9854;50.968;4.168;2022-11-15T05:30:34;11.60;;;5.75;;
19436;SDS011;9854;50.968;4.168;2022-11-15T05:33:00;8.60;;;5.32;;
19436;SDS011;9854;50.968;4.168;2022-11-15T05:35:30;13.52;;;5.50;;
19436;SDS011;9854;50.968;4.168;2022-11-15T05:38:01;11.47;;;5.37;;
19436;SDS011;9854;50.968;4.168;2022-11-15T05:40:28;8.25;;;5.82;;
19436;SDS011;9854;50.968;4.168;2022-11-15T05:42:54;11.82;;;5.80;;
19436;SDS011;9854;50.968;4.168;2022-11-15T05:45:21;9.88;;;5.72;;
19436;SDS011;9854;50.968;4.168;2022-11-15T05:47:46;14.65;;;5.55;;
19436;SDS011;9854;50.968;4.168;2022-11-15T05:50:14;7.43;;;5.40;;
19436;SDS011;9854;50.968;4.168;2022-11-15T05:52:41;12.60;;;5.38;;
19436;SDS011;9854;50.968;4.168;2022-11-15T05:55:08;9.75;;;5.43;;
19436;SDS011;9854;50.968;4.168;2022-11-15T05:57:34;12.95;;;5.97;;
19436;SDS011;9854;50.968;4.168;2022-11-15T06:00:00;11.40;;;5.10;;
19436;SDS011;9854;50.968;4.168;2022-11-15T06:02:26;7.45;;;4.20;;
19436;SDS011;9854;50.968;4.168;2022-11-15T06:04:52;7.95;;;5.10;;
19436;SDS011;9854;50.968;4.168;2022-11-15T06:07:17;8.68;;;3.65;;
19436;SDS011;9854;50.968;4.168;2022-11-15T06:09:43;9.13;;;5.40;;
19436;SDS011;9854;50.968;4.168;2022-11-15T06:12:09;12.35;;;4.57;;
19436;SDS011;9854;50.968;4.168;2022-11-15T06:14:34;15.00;;;5.38;;
19436;SDS011;9854;50.968;4.168;2022-11-15T06:17:00;9.13;;;4.47;;
19436;SDS011;9854;50.968;4.168;2022-11-15T06:19:25;9.02;;;5.30;;
19436;SDS011;9854;50.968;4.168;2022-11-15T06:21:51;11.45;;;4.55;;
19436;SDS011;9854;50.968;4.168;2022-11-15T06:24:16;10.30;;;4.43;;
19436;SDS011;9854;50.968;4.168;2022-11-15T06:26:42;9.20;;;4.50;;
19436;SDS011;9854;50.968;4.168;2022-11-15T06:29:08;8.93;;;4.30;;
19436;SDS011;9854;50.968;4.168;2022-11-15T06:31:34;5.78;;;3.88;;
19436;SDS011;9854;50.968;4.168;2022-11-15T06:34:00;11.55;;;4.65;;
19436;SDS011;9854;50.968;4.168;2022-11-15T06:36:25;9.63;;;5.20;;
19436;SDS011;9854;50.968;4.168;2022-11-15T06:38:51;9.60;;;5.63;;
19436;SDS011;9854;50.968;4.168;2022-11-15T06:41:16;12.95;;;6.70;;
19436;SDS011;9854;50.968;4.168;2022-11-15T06:43:42;12.50;;;5.53;;
19436;SDS011;9854;50.968;4.168;2022-11-15T06:46:08;16.30;;;6.47;;
19436;SDS011;9854;50.968;4.168;2022-11-15T06:48:34;11.33;;;7.07;;
19436;SDS011;9854;50.968;4.168;2022-11-15T06:51:00;13.40;;;6.80;;
19436;SDS011;9854;50.968;4.168;2022-11-15T06:53:28;11.30;;;8.30;;
19436;SDS011;9854;50.968;4.168;2022-11-15T06:55:57;15.23;;;8.77;;
19436;SDS011;9854;50.968;4.168;2022-11-15T06:58:27;15.47;;;9.27;;
19436;SDS011;9854;50.968;4.168;2022-11-15T07:00:53;19.93;;;9.70;;
19436;SDS011;9854;50.968;4.168;2022-11-15T07:03:22;16.83;;;10.30;;
19436;SDS011;9854;50.968;4.168;2022-11-15T07:05:55;17.43;;;10.70;;
19436;SDS011;9854;50.968;4.168;2022-11-15T07:08:22;17.27;;;10.10;;
19436;SDS011;9854;50.968;4.168;2022-11-15T07:10:49;17.20;;;10.00;;
19436;SDS011;9854;50.968;4.168;2022-11-15T07:13:15;26.57;;;12.13;;
19436;SDS011;9854;50.968;4.168;2022-11-15T07:15:40;14.50;;;11.00;;
19436;SDS011;9854;50.968;4.168;2022-11-15T07:18:06;14.57;;;10.23;;
19436;SDS011;9854;50.968;4.168;2022-11-15T07:20:31;19.23;;;10.10;;
19436;SDS011;9854;50.968;4.168;2022-11-15T07:23:00;20.67;;;10.60;;
19436;SDS011;9854;50.968;4.168;2022-11-15T07:25:30;14.00;;;9.57;;
19436;SDS011;9854;50.968;4.168;2022-11-15T07:27:56;12.80;;;8.80;;
19436;SDS011;9854;50.968;4.168;2022-11-15T07:30:23;11.77;;;8.77;;
19436;SDS011;9854;50.968;4.168;2022-11-15T07:32:53;14.37;;;8.67;;
19436;SDS011;9854;50.968;4.168;2022-11-15T07:35:20;17.50;;;8.70;;
19436;SDS011;9854;50.968;4.168;2022-11-15T07:37:52;10.13;;;8.20;;
19436;SDS011;9854;50.968;4.168;2022-11-15T07:40:22;11.23;;;8.53;;
19436;SDS011;9854;50.968;4.168;2022-11-15T07:42:48;11.03;;;8.27;;
19436;SDS011;9854;50.968;4.168;2022-11-15T07:45:21;15.10;;;8.20;;
19436;SDS011;9854;50.968;4.168;2022-11-15T07:47:48;11.73;;;7.50;;
19436;SDS011;9854;50.968;4.168;2022-11-15T07:50:15;7.60;;;6.70;;
19436;SDS011;9854;50.968;4.168;2022-11-15T07:52:41;14.40;;;7.33;;
19436;SDS011;9854;50.968;4.168;2022-11-15T07:55:07;15.07;;;7.23;;
19436;SDS011;9854;50.968;4.168;2022-11-15T07:57:33;12.97;;;5.97;;
19436;SDS011;9854;50.968;4.168;2022-11-15T07:59:59;8.90;;;5.93;;
19436;SDS011;9854;50.968;4.168;2022-11-15T08:02:24;11.80;;;5.90;;
19436;SDS011;9854;50.968;4.168;2022-11-15T08:04:50;15.70;;;5.50;;
19436;SDS011;9854;50.968;4.168;2022-11-15T08:07:16;13.30;;;5.80;;
19436;SDS011;9854;50.968;4.168;2022-11-15T08:09:41;9.83;;;4.83;;
19436;SDS011;9854;50.968;4.168;2022-11-15T08:12:07;7.80;;;5.13;;
19436;SDS011;9854;50.968;4.168;2022-11-15T08:14:32;9.20;;;5.63;;
19436;SDS011;9854;50.968;4.168;2022-11-15T08:16:59;7.90;;;5.37;;
19436;SDS011;9854;50.968;4.168;2022-11-15T08:19:25;10.35;;;5.85;;
19436;SDS011;9854;50.968;4.168;2022-11-15T08:21:50;7.20;;;5.13;;
19436;SDS011;9854;50.968;4.168;2022-11-15T08:24:16;10.00;;;4.90;;
19436;SDS011;9854;50.968;4.168;2022-11-15T08:26:42;8.53;;;4.70;;
19436;SDS011;9854;50.968;4.168;2022-11-15T08:29:07;6.23;;;4.17;;
19436;SDS011;9854;50.968;4.168;2022-11-15T08:31:33;10.37;;;3.87;;
19436;SDS011;9854;50.968;4.168;2022-11-15T08:34:01;6.68;;;3.70;;
19436;SDS011;9854;50.968;4.168;2022-11-15T08:36:27;5.40;;;3.40;;
19436;SDS011;9854;50.968;4.168;2022-11-15T08:38:53;5.17;;;2.93;;
19436;SDS011;9854;50.968;4.168;2022-11-15T08:41:30;13.23;;;3.67;;
19436;SDS011;9854;50.968;4.168;2022-11-15T08:43:58;6.45;;;2.80;;
19436;SDS011;9854;50.968;4.168;2022-11-15T08:46:24;12.32;;;3.22;;
19436;SDS011;9854;50.968;4.168;2022-11-15T08:48:49;11.87;;;3.27;;
19436;SDS011;9854;50.968;4.168;2022-11-15T08:51:15;10.45;;;2.75;;
19436;SDS011;9854;50.968;4.168;2022-11-15T08:53:41;7.30;;;2.88;;
19436;SDS011;9854;50.968;4.168;2022-11-15T08:56:11;8.00;;;2.47;;
19436;SDS011;9854;50.968;4.168;2022-11-15T08:58:38;9.30;;;2.72;;
19436;SDS011;9854;50.968;4.168;2022-11-15T09:01:03;7.50;;;2.67;;
19436;SDS011;9854;50.968;4.168;2022-11-15T09:03:29;7.65;;;2.63;;
19436;SDS011;9854;50.968;4.168;2022-11-15T09:05:57;8.18;;;2.63;;
19436;SDS011;9854;50.968;4.168;2022-11-15T09:08:24;11.90;;;3.10;;
19436;SDS011;9854;50.968;4.168;2022-11-15T09:10:50;10.77;;;2.88;;
19436;SDS011;9854;50.968;4.168;2022-11-15T09:13:16;11.90;;;4.47;;
19436;SDS011;9854;50.968;4.168;2022-11-15T09:15:42;7.90;;;3.20;;
19436;SDS011;9854;50.968;4.168;2022-11-15T09:18:07;14.10;;;4.93;;
19436;SDS011;9854;50.968;4.168;2022-11-15T09:20:33;14.85;;;4.60;;
19436;SDS011;9854;50.968;4.168;2022-11-15T09:23:02;5.32;;;2.35;;
19436;SDS011;9854;50.968;4.168;2022-11-15T09:25:29;7.50;;;2.20;;
19436;SDS011;9854;50.968;4.168;2022-11-15T09:27:55;4.88;;;2.20;;
19436;SDS011;9854;50.968;4.168;2022-11-15T09:30:21;9.60;;;2.20;;
19436;SDS011;9854;50.968;4.168;2022-11-15T09:32:48;6.78;;;1.83;;
19436;SDS011;9854;50.968;4.168;2022-11-15T09:35:13;7.82;;;2.33;;
19436;SDS011;9854;50.968;4.168;2022-11-15T09:37:39;8.43;;;2.53;;
19436;SDS011;9854;50.968;4.168;2022-11-15T09:40:06;6.95;;;2.08;;
19436;SDS011;9854;50.968;4.168;2022-11-15T09:47:55;11.25;;;2.28;;
19436;SDS011;9854;50.968;4.168;2022-11-15T09:53:18;7.70;;;2.15;;
19436;SDS011;9854;50.968;4.168;2022-11-15T10:04:01;8.20;;;2.25;;
19436;SDS011;9854;50.968;4.168;2022-11-15T10:06:26;4.82;;;2.00;;
19436;SDS011;9854;50.968;4.168;2022-11-15T10:08:58;7.75;;;2.25;;
19436;SDS011;9854;50.968;4.168;2022-11-15T10:11:44;7.97;;;2.25;;
19436;SDS011;9854;50.968;4.168;2022-11-15T10:14:20;9.73;;;2.40;;
19436;SDS011;9854;50.968;4.168;2022-11-15T10:22:24;8.90;;;2.38;;
19436;SDS011;9854;50.968;4.168;2022-11-15T10:27:33;13.70;;;2.28;;
19436;SDS011;9854;50.968;4.168;2022-11-15T10:29:59;7.50;;;2.20;;
19436;SDS011;9854;50.968;4.168;2022-11-15T10:32:25;7.25;;;2.17;;
19436;SDS011;9854;50.968;4.168;2022-11-15T10:34:53;12.20;;;2.03;;
19436;SDS011;9854;50.968;4.168;2022-11-15T10:37:29;5.85;;;2.00;;
19436;SDS011;9854;50.968;4.168;2022-11-15T10:40:12;9.80;;;1.92;;
19436;SDS011;9854;50.968;4.168;2022-11-15T10:42:47;8.90;;;1.70;;
19436;SDS011;9854;50.968;4.168;2022-11-15T10:45:30;7.95;;;2.00;;
19436;SDS011;9854;50.968;4.168;2022-11-15T10:48:19;9.23;;;1.98;;
19436;SDS011;9854;50.968;4.168;2022-11-15T10:50:47;8.63;;;2.28;;
19436;SDS011;9854;50.968;4.168;2022-11-15T10:53:20;6.53;;;1.77;;
19436;SDS011;9854;50.968;4.168;2022-11-15T10:55:47;12.35;;;2.03;;
19436;SDS011;9854;50.968;4.168;2022-11-15T11:03:44;7.13;;;1.83;;
19436;SDS011;9854;50.968;4.168;2022-11-15T11:06:27;5.57;;;1.70;;
19436;SDS011;9854;50.968;4.168;2022-11-15T11:11:21;8.02;;;1.55;;
19436;SDS011;9854;50.968;4.168;2022-11-15T11:13:47;14.15;;;2.00;;
19436;SDS011;9854;50.968;4.168;2022-11-15T11:21:55;8.15;;;2.10;;
19436;SDS011;9854;50.968;4.168;2022-11-15T11:30:21;9.48;;;2.20;;
19436;SDS011;9854;50.968;4.168;2022-11-15T11:33:06;6.93;;;1.83;;
19436;SDS011;9854;50.968;4.168;2022-11-15T11:35:45;8.85;;;1.75;;
19436;SDS011;9854;50.968;4.168;2022-11-15T11:38:37;8.82;;;2.00;;
19436;SDS011;9854;50.968;4.168;2022-11-15T11:41:10;5.95;;;1.50;;
19436;SDS011;9854;50.968;4.168;2022-11-15T11:47:09;12.35;;;1.65;;
19436;SDS011;9854;50.968;4.168;2022-11-15T11:49:48;6.22;;;1.52;;
19436;SDS011;9854;50.968;4.168;2022-11-15T11:52:50;5.95;;;1.58;;
19436;SDS011;9854;50.968;4.168;2022-11-15T11:55:37;8.80;;;2.20;;
19436;SDS011;9854;50.968;4.168;2022-11-15T12:01:01;9.77;;;1.70;;
19436;SDS011;9854;50.968;4.168;2022-11-15T12:06:06;6.28;;;1.75;;
19436;SDS011;9854;50.968;4.168;2022-11-15T12:08:48;5.75;;;1.60;;
19436;SDS011;9854;50.968;4.168;2022-11-15T12:11:17;6.57;;;1.88;;
19436;SDS011;9854;50.968;4.168;2022-11-15T12:14:04;7.53;;;1.70;;
19436;SDS011;9854;50.968;4.168;2022-11-15T12:16:54;5.47;;;1.38;;
19436;SDS011;9854;50.968;4.168;2022-11-15T12:19:20;6.93;;;1.48;;
19436;SDS011;9854;50.968;4.168;2022-11-15T12:24:25;10.93;;;1.60;;
19436;SDS011;9854;50.968;4.168;2022-11-15T12:29:47;6.65;;;1.90;;
19436;SDS011;9854;50.968;4.168;2022-11-15T12:32:28;7.10;;;1.67;;
19436;SDS011;9854;50.968;4.168;2022-11-15T12:34:55;3.55;;;1.58;;
19436;SDS011;9854;50.968;4.168;2022-11-15T12:40:23;7.05;;;1.70;;
19436;SDS011;9854;50.968;4.168;2022-11-15T12:43:04;5.50;;;2.08;;
19436;SDS011;9854;50.968;4.168;2022-11-15T12:45:40;4.47;;;1.40;;
19436;SDS011;9854;50.968;4.168;2022-11-15T13:06:49;7.63;;;2.10;;
19436;SDS011;9854;50.968;4.168;2022-11-15T13:11:57;6.97;;;3.00;;
19436;SDS011;9854;50.968;4.168;2022-11-15T13:17:17;5.47;;;1.90;;
19436;SDS011;9854;50.968;4.168;2022-11-15T13:22:27;5.18;;;1.85;;
19436;SDS011;9854;50.968;4.168;2022-11-15T13:28:10;4.40;;;2.13;;
19436;SDS011;9854;50.968;4.168;2022-11-15T13:30:40;4.05;;;1.70;;
19436;SDS011;9854;50.968;4.168;2022-11-15T13:35:47;3.40;;;1.70;;
19436;SDS011;9854;50.968;4.168;2022-11-15T13:40:45;5.75;;;2.03;;
19436;SDS011;9854;50.968;4.168;2022-11-15T13:48:31;7.97;;;1.67;;
19436;SDS011;9854;50.968;4.168;2022-11-15T13:50:58;5.18;;;1.65;;
19436;SDS011;9854;50.968;4.168;2022-11-15T13:53:26;2.45;;;1.40;;
19436;SDS011;9854;50.968;4.168;2022-11-15T13:55:52;3.75;;;1.73;;
19436;SDS011;9854;50.968;4.168;2022-11-15T13:58:21;6.68;;;1.70;;
19436;SDS011;9854;50.968;4.168;2022-11-15T14:00:58;5.43;;;1.60;;
19436;SDS011;9854;50.968;4.168;2022-11-15T14:03:29;4.65;;;1.33;;
19436;SDS011;9854;50.968;4.168;2022-11-15T14:06:16;3.15;;;1.40;;
19436;SDS011;9854;50.968;4.168;2022-11-15T14:11:49;9.43;;;1.83;;
19436;SDS011;9854;50.968;4.168;2022-11-15T14:14:25;4.22;;;1.83;;
19436;SDS011;9854;50.968;4.168;2022-11-15T14:16:53;1.85;;;1.38;;
19436;SDS011;9854;50.968;4.168;2022-11-15T14:25:03;3.47;;;1.77;;
19436;SDS011;9854;50.968;4.168;2022-11-15T14:27:32;6.97;;;1.83;;
19436;SDS011;9854;50.968;4.168;2022-11-15T14:29:58;3.75;;;1.90;;
19436;SDS011;9854;50.968;4.168;2022-11-15T14:32:25;5.35;;;1.80;;
19436;SDS011;9854;50.968;4.168;2022-11-15T14:34:54;6.65;;;1.80;;
19436;SDS011;9854;50.968;4.168;2022-11-15T14:37:28;4.13;;;1.50;;
19436;SDS011;9854;50.968;4.168;2022-11-15T14:40:00;2.88;;;1.73;;
19436;SDS011;9854;50.968;4.168;2022-11-15T14:42:29;3.50;;;2.10;;
19436;SDS011;9854;50.968;4.168;2022-11-15T14:44:55;5.38;;;2.10;;
19436;SDS011;9854;50.968;4.168;2022-11-15T14:47:20;9.38;;;2.20;;
19436;SDS011;9854;50.968;4.168;2022-11-15T14:49:46;5.45;;;1.92;;
19436;SDS011;9854;50.968;4.168;2022-11-15T14:52:28;4.82;;;2.03;;
19436;SDS011;9854;50.968;4.168;2022-11-15T14:54:58;7.05;;;2.17;;
19436;SDS011;9854;50.968;4.168;2022-11-15T14:57:26;5.43;;;2.40;;
19436;SDS011;9854;50.968;4.168;2022-11-15T14:59:51;4.68;;;2.50;;
19436;SDS011;9854;50.968;4.168;2022-11-15T15:02:18;8.50;;;2.60;;
19436;SDS011;9854;50.968;4.168;2022-11-15T15:04:46;5.60;;;3.70;;
19436;SDS011;9854;50.968;4.168;2022-11-15T15:07:12;5.25;;;3.33;;
19436;SDS011;9854;50.968;4.168;2022-11-15T15:09:37;4.95;;;2.88;;
19436;SDS011;9854;50.968;4.168;2022-11-15T15:12:03;5.38;;;2.30;;
19436;SDS011;9854;50.968;4.168;2022-11-15T15:14:31;7.63;;;2.20;;
19436;SDS011;9854;50.968;4.168;2022-11-15T15:16:57;7.15;;;2.55;;
19436;SDS011;9854;50.968;4.168;2022-11-15T15:19:23;2.42;;;2.20;;
19436;SDS011;9854;50.968;4.168;2022-11-15T15:21:48;5.78;;;2.20;;
19436;SDS011;9854;50.968;4.168;2022-11-15T15:24:14;3.72;;;2.50;;
19436;SDS011;9854;50.968;4.168;2022-11-15T15:26:40;4.18;;;2.40;;
19436;SDS011;9854;50.968;4.168;2022-11-15T15:29:06;7.30;;;3.45;;
19436;SDS011;9854;50.968;4.168;2022-11-15T15:31:33;6.85;;;3.17;;
19436;SDS011;9854;50.968;4.168;2022-11-15T15:33:59;5.68;;;3.28;;
19436;SDS011;9854;50.968;4.168;2022-11-15T15:36:25;5.63;;;3.40;;
19436;SDS011;9854;50.968;4.168;2022-11-15T15:38:51;4.18;;;2.63;;
19436;SDS011;9854;50.968;4.168;2022-11-15T15:41:17;3.53;;;3.13;;
19436;SDS011;9854;50.968;4.168;2022-11-15T15:43:43;6.38;;;3.33;;
19436;SDS011;9854;50.968;4.168;2022-11-15T15:46:13;7.07;;;3.33;;
19436;SDS011;9854;50.968;4.168;2022-11-15T15:48:40;4.82;;;3.00;;
19436;SDS011;9854;50.968;4.168;2022-11-15T15:51:06;5.85;;;3.33;;
19436;SDS011;9854;50.968;4.168;2022-11-15T15:53:33;6.88;;;3.63;;
19436;SDS011;9854;50.968;4.168;2022-11-15T15:55:59;5.55;;;3.90;;
19436;SDS011;9854;50.968;4.168;2022-11-15T15:58:25;5.40;;;3.88;;
19436;SDS011;9854;50.968;4.168;2022-11-15T16:00:50;7.43;;;3.80;;
19436;SDS011;9854;50.968;4.168;2022-11-15T16:03:16;8.43;;;3.35;;
19436;SDS011;9854;50.968;4.168;2022-11-15T16:05:42;4.50;;;3.85;;
19436;SDS011;9854;50.968;4.168;2022-11-15T16:08:18;5.75;;;3.97;;
19436;SDS011;9854;50.968;4.168;2022-11-15T16:10:45;4.82;;;3.20;;
19436;SDS011;9854;50.968;4.168;2022-11-15T16:13:11;4.18;;;3.80;;
19436;SDS011;9854;50.968;4.168;2022-11-15T16:15:36;4.22;;;3.80;;
19436;SDS011;9854;50.968;4.168;2022-11-15T16:18:03;5.25;;;4.68;;
19436;SDS011;9854;50.968;4.168;2022-11-15T16:20:31;6.47;;;4.82;;
19436;SDS011;9854;50.968;4.168;2022-11-15T16:22:57;4.70;;;3.70;;
19436;SDS011;9854;50.968;4.168;2022-11-15T16:25:24;8.07;;;4.53;;
19436;SDS011;9854;50.968;4.168;2022-11-15T16:27:50;5.95;;;3.65;;
19436;SDS011;9854;50.968;4.168;2022-11-15T16:30:16;5.75;;;4.28;;
19436;SDS011;9854;50.968;4.168;2022-11-15T16:32:44;4.72;;;3.90;;
19436;SDS011;9854;50.968;4.168;2022-11-15T16:35:10;5.05;;;3.67;;
19436;SDS011;9854;50.968;4.168;2022-11-15T16:37:40;5.90;;;4.20;;
19436;SDS011;9854;50.968;4.168;2022-11-15T16:40:48;5.13;;;3.97;;
19436;SDS011;9854;50.968;4.168;2022-11-15T16:42:59;3.88;;;3.50;;
19436;SDS011;9854;50.968;4.168;2022-11-15T16:45:27;4.30;;;3.92;;
19436;SDS011;9854;50.968;4.168;2022-11-15T16:47:56;4.72;;;4.25;;
19436;SDS011;9854;50.968;4.168;2022-11-15T16:50:23;4.55;;;4.15;;
19436;SDS011;9854;50.968;4.168;2022-11-15T16:52:54;5.03;;;4.38;;
19436;SDS011;9854;50.968;4.168;2022-11-15T16:55:21;5.38;;;4.70;;
19436;SDS011;9854;50.968;4.168;2022-11-15T16:57:49;6.97;;;4.55;;
19436;SDS011;9854;50.968;4.168;2022-11-15T17:00:17;4.40;;;4.00;;
19436;SDS011;9854;50.968;4.168;2022-11-15T17:02:44;4.90;;;4.40;;
19436;SDS011;9854;50.968;4.168;2022-11-15T17:05:11;5.15;;;3.95;;
19436;SDS011;9854;50.968;4.168;2022-11-15T17:07:38;5.78;;;3.55;;
19436;SDS011;9854;50.968;4.168;2022-11-15T17:10:04;5.32;;;4.70;;
19436;SDS011;9854;50.968;4.168;2022-11-15T17:12:31;6.18;;;3.78;;
19436;SDS011;9854;50.968;4.168;2022-11-15T17:14:58;4.13;;;3.83;;
19436;SDS011;9854;50.968;4.168;2022-11-15T17:17:24;4.47;;;4.07;;
19436;SDS011;9854;50.968;4.168;2022-11-15T17:19:50;4.93;;;4.47;;
19436;SDS011;9854;50.968;4.168;2022-11-15T17:22:17;6.00;;;4.10;;